Time;durP1;ratioP1;P1;durP2;ratioP2;P2;SDS_P1;SDS_P2;PMS_P1;PMS_P2;Temp;Humidity;BMP_temperature;BMP_pressure;BME280_temperature;BME280_humidity;BME280_pressure;Samples;Min_cycle;Max_cycle;Signal;HPM_P1;HPM_P2
2021/06/08 00:02:22;;;;;;;7.13;4.20;;;18.10;70.50;;;;;;6156790;23;19912;-73
2021/06/08 00:04:48;;;;;;;10.75;4.60;;;18.10;70.60;;;;;;6155077;23;20013;-73
2021/06/08 00:07:14;;;;;;;;;;;18.20;70.70;;;;;;6131045;23;20446;-73
2021/06/08 00:09:41;;;;;;;11.93;4.30;;;18.10;70.00;;;;;;6155102;23;19912;-73
2021/06/08 00:12:08;;;;;;;16.02;4.90;;;18.20;70.40;;;;;;6155145;23;20017;-73
2021/06/08 00:14:34;;;;;;;10.07;4.80;;;18.10;70.60;;;;;;6156530;23;20081;-73
2021/06/08 00:17:00;;;;;;;7.57;4.07;;;18.10;70.60;;;;;;6154909;23;20433;-72
2021/06/08 00:19:27;;;;;;;13.15;4.60;;;18.10;70.70;;;;;;6155015;23;20063;-74
2021/06/08 00:21:53;;;;;;;10.63;5.22;;;18.10;70.70;;;;;;6155019;23;20020;-73
2021/06/08 00:24:19;;;;;;;;;;;18.10;70.70;;;;;;6155639;23;20018;-73
2021/06/08 00:26:45;;;;;;;15.88;6.55;;;18.10;69.50;;;;;;6130159;23;19919;-73
2021/06/08 00:29:11;;;;;;;;;;;18.10;70.60;;;;;;6155501;23;20013;-73
2021/06/08 00:31:37;;;;;;;20.65;6.35;;;18.10;69.50;;;;;;6154798;23;20028;-74
2021/06/08 00:34:04;;;;;;;19.20;6.25;;;18.10;70.60;;;;;;6156383;23;20017;-72
2021/06/08 00:36:30;;;;;;;;;;;18.10;70.90;;;;;;6155349;23;20020;-73
2021/06/08 00:38:56;;;;;;;10.68;6.70;;;18.10;69.60;;;;;;6154536;23;19983;-73
2021/06/08 00:41:42;;;;;;;;;;;18.20;70.60;;;;;;6130597;23;20390;-73
2021/06/08 00:46:57;;;;;;;11.43;5.30;;;18.20;70.40;;;;;;6156386;23;20029;-72
2021/06/08 00:49:23;;;;;;;15.45;5.13;;;18.20;70.70;;;;;;6154747;23;20435;-73
2021/06/08 00:51:50;;;;;;;16.13;6.57;;;18.30;70.90;;;;;;6130162;23;20454;-73
2021/06/08 00:54:16;;;;;;;17.33;7.95;;;18.30;71.10;;;;;;6154665;23;20006;-73
2021/06/08 00:56:43;;;;;;;;;;;18.30;71.30;;;;;;6155199;23;20072;-73
2021/06/08 00:59:11;;;;;;;23.50;8.40;;;18.40;70.50;;;;;;6154809;23;20314;-73
2021/06/08 01:01:38;;;;;;;14.82;8.07;;;18.40;71.20;;;;;;6156407;23;20064;-73
2021/06/08 01:04:07;;;;;;;14.88;8.52;;;18.40;71.60;;;;;;6154319;23;20064;-73
2021/06/08 01:06:35;;;;;;;20.55;8.15;;;18.50;71.70;;;;;;6154050;23;20068;-73
2021/06/08 01:09:05;;;;;;;41.47;9.38;;;18.50;71.80;;;;;;6154625;23;20041;-73
2021/06/08 01:11:34;;;;;;;65.90;9.90;;;18.50;72.00;;;;;;6154691;23;20091;-74
2021/06/08 01:14:00;;;;;;;51.90;8.90;;;18.50;72.30;;;;;;6129809;23;20006;-73
2021/06/08 01:16:29;;;;;;;65.95;8.68;;;18.40;72.80;;;;;;6154350;23;20021;-73
2021/06/08 01:18:56;;;;;;;36.25;7.85;;;18.30;73.90;;;;;;6156024;23;20005;-73
2021/06/08 01:21:22;;;;;;;90.50;8.52;;;18.30;73.60;;;;;;6154297;23;20438;-74
2021/06/08 01:23:48;;;;;;;33.10;6.55;;;18.20;75.00;;;;;;6154475;23;20020;-73
2021/06/08 01:26:16;;;;;;;;;;;18.20;74.70;;;;;;6154764;23;20017;-73
2021/06/08 01:28:44;;;;;;;77.78;7.45;;;18.10;74.00;;;;;;6154375;23;19909;-73
2021/06/08 01:31:33;;;;;;;59.25;7.65;;;18.10;75.00;;;;;;6154358;23;20545;-74
2021/06/08 01:34:00;;;;;;;58.67;6.93;;;18.10;75.00;;;;;;6154387;23;20331;-73
2021/06/08 01:36:31;;;;;;;45.95;7.25;;;18.10;75.00;;;;;;6154200;23;20017;-72
2021/06/08 01:38:57;;;;;;;65.72;7.88;;;18.00;75.10;;;;;;6129366;23;20037;-74
2021/06/08 01:41:25;;;;;;;;;;;18.10;75.10;;;;;;6156422;23;20021;-74
2021/06/08 01:43:53;;;;;;;41.35;7.90;;;18.10;74.10;;;;;;6154283;23;19916;-74
2021/06/08 01:46:22;;;;;;;39.10;7.40;;;18.10;74.60;;;;;;6153980;23;20018;-74
2021/06/08 01:48:49;;;;;;;40.05;7.25;;;18.10;74.70;;;;;;6129521;23;20100;-74
2021/06/08 01:52:11;;;;;;;47.90;8.02;;;18.10;74.80;;;;;;6154025;23;20090;-73
2021/06/08 01:55:17;;;;;;;19.33;7.60;;;18.10;74.80;;;;;;6154064;23;20021;-73
2021/06/08 01:58:04;;;;;;;18.95;7.43;;;18.10;74.80;;;;;;6154149;23;20037;-75
2021/06/08 02:01:10;;;;;;;21.70;7.05;;;18.10;75.20;;;;;;6128800;23;20320;-73
2021/06/08 02:04:00;;;;;;;15.93;7.40;;;18.00;74.80;;;;;;6129374;23;20469;-73
2021/06/08 02:07:23;;;;;;;22.67;7.68;;;18.00;74.90;;;;;;6129284;23;20056;-73
2021/06/08 02:10:29;;;;;;;22.02;8.38;;;18.00;74.80;;;;;;6155580;23;20020;-74
2021/06/08 02:13:10;;;;;;;13.80;7.63;;;18.00;74.90;;;;;;6154195;23;20375;-73
2021/06/08 02:15:43;;;;;;;13.25;8.23;;;17.90;75.30;;;;;;6154009;23;20320;-73
2021/06/08 02:18:11;;;;;;;24.63;8.02;;;17.90;75.30;;;;;;6129512;23;20096;-73
2021/06/08 02:20:40;;;;;;;19.95;7.72;;;17.90;75.40;;;;;;6154009;23;20454;-74
2021/06/08 02:23:11;;;;;;;20.35;8.23;;;17.90;75.40;;;;;;6153877;23;20022;-73
2021/06/08 02:25:38;;;;;;;35.50;7.65;;;17.90;75.50;;;;;;6153844;23;20065;-73
2021/06/08 02:28:10;;;;;;;10.55;7.65;;;17.90;75.40;;;;;;6155921;23;20041;-74
2021/06/08 02:30:38;;;;;;;16.73;8.15;;;17.90;75.60;;;;;;6154062;23;20005;-74
2021/06/08 02:33:06;;;;;;;10.73;7.43;;;17.90;75.60;;;;;;6155860;23;20045;-73
2021/06/08 02:35:33;;;;;;;22.00;7.10;;;17.80;75.50;;;;;;6153869;23;20017;-74
2021/06/08 02:38:02;;;;;;;30.17;7.28;;;17.80;75.50;;;;;;6165104;23;20020;-74
2021/06/08 02:40:29;;;;;;;31.80;8.15;;;17.70;75.70;;;;;;6158782;23;20069;-73
2021/06/08 02:42:56;;;;;;;26.90;7.43;;;17.70;75.70;;;;;;6158831;23;20028;-74
2021/06/08 02:45:23;;;;;;;23.00;6.97;;;17.60;75.10;;;;;;6185042;23;20013;-73
2021/06/08 02:47:51;;;;;;;16.00;7.45;;;17.60;74.90;;;;;;6158715;23;20047;-73
2021/06/08 02:50:22;;;;;;;31.27;7.22;;;17.60;75.40;;;;;;6158701;23;20012;-74
2021/06/08 02:52:53;;;;;;;26.90;7.45;;;17.50;75.10;;;;;;6159551;23;20075;-74
2021/06/08 02:55:38;;;;;;;33.10;7.57;;;17.50;75.20;;;;;;6159687;23;20016;-73
2021/06/08 02:58:06;;;;;;;19.75;6.53;;;17.40;75.10;;;;;;6158963;23;20013;-73
2021/06/08 03:00:33;;;;;;;21.85;6.80;;;17.30;74.50;;;;;;6158653;23;20009;-73
2021/06/08 03:03:02;;;;;;;29.85;6.60;;;17.30;75.10;;;;;;6159011;23;20096;-74
2021/06/08 03:05:33;;;;;;;26.83;7.03;;;17.30;75.00;;;;;;6158471;23;20009;-73
2021/06/08 03:08:09;;;;;;;125.18;8.80;;;17.20;74.90;;;;;;6158930;23;20017;-74
2021/06/08 03:10:37;;;;;;;248.32;10.05;;;17.20;75.00;;;;;;6158645;23;20012;-73
2021/06/08 03:13:07;;;;;;;54.90;7.93;;;17.10;75.20;;;;;;6158866;23;20009;-73
2021/06/08 03:15:56;;;;;;;75.30;7.38;;;17.10;75.10;;;;;;6158871;23;20019;-74
2021/06/08 03:18:28;;;;;;;65.72;7.40;;;17.20;74.80;;;;;;6134126;23;20021;-74
2021/06/08 03:20:58;;;;;;;98.00;8.35;;;17.20;74.60;;;;;;6158709;23;20009;-74
2021/06/08 03:23:29;;;;;;;82.07;7.28;;;17.10;74.70;;;;;;6158482;23;20446;-73
2021/06/08 03:25:59;;;;;;;82.75;7.80;;;17.10;74.90;;;;;;6158655;23;20079;-74
2021/06/08 03:28:27;;;;;;;156.50;9.00;;;17.10;75.00;;;;;;6185497;23;20029;-74
2021/06/08 03:30:55;;;;;;;165.43;8.52;;;17.10;75.20;;;;;;6160432;23;20496;-74
2021/06/08 03:33:22;;;;;;;71.68;7.55;;;17.10;75.20;;;;;;6186614;23;20386;-74
2021/06/08 03:35:50;;;;;;;95.68;7.88;;;17.10;75.10;;;;;;6160110;23;20099;-73
2021/06/08 03:38:18;;;;;;;87.18;7.82;;;17.20;75.00;;;;;;6159947;23;20021;-73
2021/06/08 03:40:59;;;;;;;46.05;6.90;;;17.20;74.70;;;;;;6162351;23;20020;-73
2021/06/08 03:43:26;;;;;;;53.35;7.65;;;17.20;74.60;;;;;;6135501;23;20013;-73
2021/06/08 03:45:53;;;;;;;86.13;7.85;;;17.20;74.60;;;;;;6160127;23;20059;-73
2021/06/08 03:48:20;;;;;;;268.75;10.93;;;17.30;75.00;;;;;;6160069;23;20043;-74
2021/06/08 03:50:50;;;;;;;129.18;9.27;;;17.30;75.00;;;;;;6160266;23;20011;-73
2021/06/08 03:53:17;;;;;;;52.55;7.35;;;17.30;75.10;;;;;;6160105;23;20020;-74
2021/06/08 03:55:47;;;;;;;92.05;7.78;;;17.30;75.00;;;;;;6135555;23;20013;-73
2021/06/08 03:58:16;;;;;;;66.47;9.60;;;17.40;74.70;;;;;;6161320;23;20009;-74
2021/06/08 04:00:48;;;;;;;167.15;8.98;;;17.50;75.30;;;;;;6160820;23;20477;-73
2021/06/08 04:03:17;;;;;;;202.40;10.00;;;17.50;75.30;;;;;;6160900;23;20338;-73
2021/06/08 04:05:46;;;;;;;105.68;8.02;;;17.50;75.50;;;;;;6160454;23;20013;-74
2021/06/08 04:08:12;;;;;;;48.25;6.53;;;17.50;75.70;;;;;;6160279;23;20013;-73
2021/06/08 04:10:57;;;;;;;;;;;17.50;75.90;;;;;;6135948;23;20024;-73
2021/06/08 04:13:23;;;;;;;44.40;6.10;;;17.50;75.40;;;;;;6135310;23;20018;-73
2021/06/08 04:15:51;;;;;;;55.72;6.72;;;17.50;76.30;;;;;;6159831;23;20072;-73
2021/06/08 04:18:20;;;;;;;71.45;5.72;;;17.40;76.40;;;;;;6159675;23;20028;-73
2021/06/08 04:23:24;;;;;;;101.13;6.05;;;17.50;76.50;;;;;;6186297;23;20021;-73
2021/06/08 04:25:51;;;;;;;54.33;6.05;;;17.60;76.10;;;;;;6159841;23;20088;-74
2021/06/08 04:28:23;;;;;;;20.08;4.68;;;17.60;75.30;;;;;;6186013;23;20021;-73
2021/06/08 04:30:50;;;;;;;47.00;5.28;;;17.60;75.60;;;;;;6159876;23;20005;-74
2021/06/08 04:33:35;;;;;;;54.25;5.68;;;17.60;76.00;;;;;;6159697;23;20047;-74
2021/06/08 04:36:01;;;;;;;61.85;5.60;;;17.60;76.00;;;;;;6159739;23;20005;-74
2021/06/08 04:38:28;;;;;;;40.95;4.80;;;17.70;76.00;;;;;;6154364;23;20027;-74
2021/06/08 04:40:54;;;;;;;42.17;4.63;;;17.80;75.80;;;;;;6156082;23;20014;-74
2021/06/08 04:43:40;;;;;;;;;;;17.80;75.40;;;;;;6155221;23;20342;-74
2021/06/08 04:48:55;;;;;;;25.05;4.57;;;17.90;74.60;;;;;;6155429;23;20478;-73
2021/06/08 04:51:22;;;;;;;16.13;4.68;;;18.00;74.00;;;;;;6129853;23;20025;-74
2021/06/08 04:53:49;;;;;;;25.90;4.85;;;18.10;74.30;;;;;;6154721;23;20053;-73
2021/06/08 04:56:15;;;;;;;;;;;18.20;74.80;;;;;;6155099;23;20080;-74
2021/06/08 04:58:42;;;;;;;12.93;5.03;;;18.30;73.80;;;;;;6156162;23;19916;-73
2021/06/08 05:01:30;;;;;;;37.60;5.38;;;18.40;73.90;;;;;;6156139;23;20017;-74
2021/06/08 05:04:08;;;;;;;33.92;5.22;;;18.60;73.60;;;;;;6154592;23;20096;-74
2021/06/08 05:06:43;;;;;;;18.17;5.05;;;18.60;73.80;;;;;;6154450;23;20016;-74
2021/06/08 05:09:37;;;;;;;26.30;6.15;;;18.60;73.80;;;;;;6130249;23;20097;-73
2021/06/08 05:12:05;;;;;;;46.28;5.88;;;18.70;73.40;;;;;;6129791;23;20009;-73
2021/06/08 05:14:33;;;;;;;45.33;6.10;;;18.80;73.10;;;;;;6129909;23;20395;-73
2021/06/08 05:17:00;;;;;;;30.65;6.30;;;18.80;73.00;;;;;;6154524;23;20017;-73
2021/06/08 05:19:27;;;;;;;16.75;5.72;;;18.90;73.20;;;;;;6154472;23;20040;-74
2021/06/08 05:21:54;;;;;;;18.67;5.60;;;19.00;73.00;;;;;;6154438;23;20020;-74
2021/06/08 05:24:22;;;;;;;17.55;5.40;;;19.10;72.50;;;;;;6155787;23;20017;-73
2021/06/08 05:26:51;;;;;;;17.35;5.90;;;19.20;72.50;;;;;;6154300;23;20081;-73
2021/06/08 05:29:21;;;;;;;31.73;5.95;;;19.40;72.10;;;;;;6155729;23;20024;-73
2021/06/08 05:31:49;;;;;;;20.52;6.10;;;19.50;71.70;;;;;;6129693;23;20019;-74
2021/06/08 05:34:20;;;;;;;31.23;6.53;;;19.50;71.40;;;;;;6155859;23;20048;-74
2021/06/08 05:36:46;;;;;;;13.02;6.20;;;19.60;71.50;;;;;;6129632;23;20129;-73
2021/06/08 05:39:13;;;;;;;20.67;6.38;;;19.70;70.90;;;;;;6154050;23;20040;-75
2021/06/08 05:41:40;;;;;;;16.85;5.57;;;19.80;70.90;;;;;;6154156;23;20013;-73
2021/06/08 05:44:09;;;;;;;14.57;5.72;;;19.90;71.10;;;;;;6154307;23;20014;-73
2021/06/08 05:46:37;;;;;;;17.95;5.97;;;20.00;70.80;;;;;;6154017;23;20024;-73
2021/06/08 05:49:22;;;;;;;15.65;5.50;;;20.10;70.50;;;;;;6154208;23;20081;-73
2021/06/08 05:51:49;;;;;;;13.13;7.68;;;20.20;70.20;;;;;;6153722;23;20013;-73
2021/06/08 05:54:16;;;;;;;7.85;5.88;;;20.20;70.00;;;;;;6154198;23;20439;-73
2021/06/08 05:56:43;;;;;;;7.95;5.25;;;20.30;70.00;;;;;;6154082;23;20339;-74
2021/06/08 05:59:14;;;;;;;8.77;5.65;;;20.30;69.40;;;;;;6154134;23;20014;-74
2021/06/08 06:01:40;;;;;;;7.88;5.95;;;20.40;69.60;;;;;;6155719;23;20009;-73
2021/06/08 06:04:11;;;;;;;10.60;6.00;;;20.40;69.00;;;;;;6154131;23;20093;-73
2021/06/08 06:06:57;;;;;;;11.95;6.18;;;20.50;69.50;;;;;;6129347;23;20064;-73
2021/06/08 06:09:23;;;;;;;8.00;6.05;;;20.50;69.60;;;;;;6129477;23;20323;-74
2021/06/08 06:11:53;;;;;;;10.77;6.38;;;20.60;69.20;;;;;;6154026;23;20164;-73
2021/06/08 06:14:23;;;;;;;9.95;6.30;;;20.60;69.40;;;;;;6154023;23;20018;-73
2021/06/08 06:16:52;;;;;;;10.13;6.97;;;20.60;69.60;;;;;;6154032;23;20354;-72
2021/06/08 06:19:39;;;;;;;12.73;7.72;;;20.70;69.40;;;;;;6154285;23;20029;-73
2021/06/08 06:22:07;;;;;;;13.43;7.05;;;20.70;69.40;;;;;;6154064;23;20009;-73
2021/06/08 06:24:33;;;;;;;10.32;7.05;;;20.90;68.60;;;;;;6153892;23;20010;-73
2021/06/08 06:27:00;;;;;;;11.52;6.85;;;21.10;68.40;;;;;;6155475;23;20016;-73
2021/06/08 06:29:26;;;;;;;10.57;7.22;;;21.20;67.50;;;;;;6129190;23;20443;-73
2021/06/08 06:31:56;;;;;;;9.85;7.07;;;21.20;67.80;;;;;;6153967;23;20018;-73
2021/06/08 06:34:25;;;;;;;8.48;6.28;;;21.30;67.80;;;;;;6153911;23;20375;-73
2021/06/08 06:36:54;;;;;;;9.98;6.10;;;21.20;68.40;;;;;;6153688;23;20013;-73
2021/06/08 06:39:26;;;;;;;8.88;6.30;;;21.20;68.30;;;;;;6153704;23;20080;-73
2021/06/08 06:41:58;;;;;;;8.80;6.00;;;21.30;68.10;;;;;;6129198;23;20014;-73
2021/06/08 06:44:26;;;;;;;7.82;5.78;;;21.40;67.70;;;;;;6129283;23;20080;-73
2021/06/08 06:46:53;;;;;;;8.32;6.03;;;21.50;67.60;;;;;;6155461;23;20024;-73
2021/06/08 06:49:21;;;;;;;10.63;6.93;;;21.50;68.00;;;;;;6129093;23;20014;-74
2021/06/08 06:51:48;;;;;;;8.43;5.93;;;21.50;68.00;;;;;;6155340;23;20493;-73
2021/06/08 06:54:14;;;;;;;9.70;6.22;;;21.60;67.90;;;;;;6153849;23;20438;-73
2021/06/08 06:56:43;;;;;;;10.10;6.63;;;21.70;67.90;;;;;;6153602;23;20080;-73
2021/06/08 06:59:10;;;;;;;8.95;6.20;;;21.70;67.60;;;;;;6129108;23;20016;-72
2021/06/08 07:01:37;;;;;;;9.40;5.70;;;21.80;67.20;;;;;;6153680;23;20024;-72
2021/06/08 07:04:05;;;;;;;7.43;5.72;;;21.90;67.40;;;;;;6155501;23;20084;-73
2021/06/08 07:06:32;;;;;;;11.90;7.15;;;22.00;67.40;;;;;;6155445;23;20028;-73
2021/06/08 07:09:01;;;;;;;10.65;6.00;;;22.20;66.70;;;;;;6155626;23;20027;-73
2021/06/08 07:11:28;;;;;;;9.27;5.78;;;22.30;66.90;;;;;;6155513;23;20454;-73
2021/06/08 07:13:57;;;;;;;10.98;6.68;;;22.40;66.00;;;;;;6155625;23;20494;-73
2021/06/08 07:16:24;;;;;;;9.77;5.82;;;22.60;66.60;;;;;;6155455;23;20024;-73
2021/06/08 07:18:52;;;;;;;8.05;5.15;;;22.70;66.60;;;;;;6155574;23;20010;-73
2021/06/08 07:21:22;;;;;;;22.83;6.95;;;22.80;66.00;;;;;;6155297;23;20220;-73
2021/06/08 07:23:52;;;;;;;20.02;9.85;;;22.80;65.40;;;;;;6155628;23;20021;-73
2021/06/08 07:26:19;;;;;;;11.07;6.50;;;23.00;65.70;;;;;;6155325;23;20013;-73
2021/06/08 07:29:23;;;;;;;18.83;10.25;;;23.10;64.80;;;;;;6155492;23;20431;-73
2021/06/08 07:32:46;;;;;;;12.48;6.25;;;23.10;65.50;;;;;;6130819;23;20017;-73
2021/06/08 07:35:51;;;;;;;9.95;5.53;;;23.20;64.90;;;;;;6156899;23;20040;-73
2021/06/08 07:38:57;;;;;;;11.48;6.15;;;23.40;64.50;;;;;;6155211;23;20017;-73
2021/06/08 07:41:45;;;;;;;8.32;6.07;;;23.50;63.90;;;;;;6155379;23;20014;-73
2021/06/08 07:44:33;;;;;;;12.02;6.93;;;23.60;63.20;;;;;;6130722;23;20339;-73
2021/06/08 07:47:04;;;;;;;9.82;6.68;;;23.70;62.80;;;;;;6154954;23;20014;-73
2021/06/08 07:49:34;;;;;;;10.73;6.95;;;23.90;62.60;;;;;;6155395;23;20018;-73
2021/06/08 07:52:03;;;;;;;10.85;5.75;;;24.00;62.70;;;;;;6155254;23;20434;-73
2021/06/08 07:54:31;;;;;;;8.90;5.75;;;24.10;62.20;;;;;;6156726;23;20085;-73
2021/06/08 07:56:58;;;;;;;10.15;6.43;;;24.20;60.70;;;;;;6155365;23;20013;-73
2021/06/08 07:59:26;;;;;;;10.35;5.50;;;24.30;61.00;;;;;;6155137;23;20010;-74
2021/06/08 08:01:52;;;;;;;8.57;6.35;;;24.40;60.60;;;;;;6155046;23;20442;-74
2021/06/08 08:04:20;;;;;;;8.70;6.43;;;24.50;59.20;;;;;;6156570;23;20461;-73
2021/06/08 08:06:51;;;;;;;10.50;5.68;;;24.60;59.40;;;;;;6154988;23;20018;-73
2021/06/08 08:09:19;;;;;;;11.40;6.13;;;24.70;58.90;;;;;;6155183;23;20009;-73
2021/06/08 08:11:49;;;;;;;8.50;6.63;;;24.90;58.00;;;;;;6156809;23;20064;-73
2021/06/08 08:14:17;;;;;;;10.00;5.28;;;25.00;57.40;;;;;;6154862;23;20088;-73
2021/06/08 08:16:46;;;;;;;10.70;6.40;;;25.20;56.60;;;;;;6130305;23;20040;-74
2021/06/08 08:19:15;;;;;;;8.80;5.47;;;25.30;54.60;;;;;;6130302;23;20013;-74
2021/06/08 08:21:42;;;;;;;10.35;5.45;;;25.40;54.30;;;;;;6154839;23;20500;-75
2021/06/08 08:24:09;;;;;;;10.95;5.25;;;25.40;52.90;;;;;;6130297;23;20021;-74
2021/06/08 08:26:36;;;;;;;13.23;5.00;;;25.50;52.40;;;;;;6154797;23;20018;-73
2021/06/08 08:29:04;;;;;;;13.77;5.70;;;25.60;52.10;;;;;;6155016;23;20021;-73
2021/06/08 08:31:32;;;;;;;7.85;5.15;;;25.70;51.50;;;;;;6154691;23;20025;-74
2021/06/08 08:33:59;;;;;;;12.07;5.80;;;25.80;50.30;;;;;;6154872;23;20084;-73
2021/06/08 08:36:30;;;;;;;11.38;5.28;;;25.90;50.80;;;;;;6154582;23;20017;-73
2021/06/08 08:38:58;;;;;;;9.68;5.47;;;26.00;51.10;;;;;;6154587;23;20446;-73
2021/06/08 08:41:25;;;;;;;10.20;4.97;;;26.10;49.80;;;;;;6156310;23;20009;-73
2021/06/08 08:43:52;;;;;;;11.65;5.30;;;26.10;49.70;;;;;;6154924;23;20009;-74
2021/06/08 08:46:20;;;;;;;8.40;5.28;;;26.10;48.90;;;;;;6156016;23;20071;-73
2021/06/08 08:48:53;;;;;;;11.32;5.10;;;26.10;48.70;;;;;;6156258;23;20020;-74
2021/06/08 08:51:42;;;;;;;10.93;4.90;;;26.20;48.80;;;;;;6154692;23;20380;-73
2021/06/08 08:54:13;;;;;;;11.18;4.80;;;26.30;47.00;;;;;;6156233;23;20025;-74
2021/06/08 08:56:41;;;;;;;7.63;5.18;;;26.40;47.10;;;;;;6154723;23;20427;-73
2021/06/08 08:59:27;;;;;;;7.43;5.03;;;26.50;46.60;;;;;;6155192;23;20379;-72
2021/06/08 09:01:55;;;;;;;13.70;4.93;;;26.50;46.30;;;;;;6130245;23;20021;-73
2021/06/08 09:04:22;;;;;;;8.95;5.05;;;26.60;46.50;;;;;;6154578;23;20020;-73
2021/06/08 09:06:49;;;;;;;8.60;5.32;;;26.70;46.60;;;;;;6154411;23;20018;-73
2021/06/08 09:09:15;;;;;;;7.22;4.80;;;26.80;46.30;;;;;;6154607;23;20009;-73
2021/06/08 09:11:42;;;;;;;9.30;6.47;;;26.90;45.80;;;;;;6154193;23;20052;-73
2021/06/08 09:14:12;;;;;;;9.35;5.13;;;27.00;45.90;;;;;;6154794;23;20033;-73
2021/06/08 09:16:39;;;;;;;7.90;5.28;;;27.00;45.90;;;;;;6154758;23;20040;-73
2021/06/08 09:19:09;;;;;;;8.63;5.25;;;27.10;46.20;;;;;;6156036;23;20081;-72
2021/06/08 09:21:43;;;;;;;8.13;4.75;;;27.40;45.50;;;;;;6155929;23;20028;-73
2021/06/08 09:24:31;;;;;;;7.35;4.93;;;27.50;45.00;;;;;;6154613;23;20020;-73
2021/06/08 09:27:23;;;;;;;11.13;5.40;;;27.80;44.80;;;;;;6153879;23;20458;-73
2021/06/08 09:29:49;;;;;;;11.23;7.10;;;28.20;44.80;;;;;;6155867;23;20017;-72
2021/06/08 09:32:28;;;;;;;7.55;5.00;;;28.80;43.10;;;;;;6156154;23;20016;-73
2021/06/08 09:35:00;;;;;;;7.55;4.85;;;29.40;41.90;;;;;;6129791;23;20033;-73
2021/06/08 09:37:38;;;;;;;12.27;5.88;;;30.10;39.60;;;;;;6156776;23;20418;-73
2021/06/08 09:40:24;;;;;;;8.27;5.10;;;30.80;39.00;;;;;;6185553;23;20084;-73
2021/06/08 09:43:11;;;;;;;7.22;5.00;;;31.40;37.50;;;;;;6134681;23;20009;-73
2021/06/08 09:46:01;;;;;;;7.30;5.00;;;32.30;36.80;;;;;;6159237;23;20031;-72
2021/06/08 09:48:27;;;;;;;7.25;5.45;;;32.70;35.90;;;;;;6158960;23;20430;-73
2021/06/08 09:50:55;;;;;;;9.40;5.07;;;33.20;34.50;;;;;;6134331;23;20346;-72
2021/06/08 09:53:41;;;;;;;7.38;4.70;;;33.70;32.70;;;;;;6159059;23;20334;-73
2021/06/08 09:56:09;;;;;;;8.07;5.38;;;34.30;32.60;;;;;;6159265;23;20334;-73
2021/06/08 09:58:55;;;;;;;12.02;5.82;;;34.80;31.70;;;;;;6159178;23;20017;-73
2021/06/08 10:01:27;;;;;;;7.05;5.10;;;35.60;31.40;;;;;;6159107;23;20032;-73
2021/06/08 10:04:12;;;;;;;9.90;4.80;;;35.90;30.10;;;;;;6159516;23;20009;-73
2021/06/08 10:06:41;;;;;;;9.07;5.82;;;36.50;30.10;;;;;;6134300;23;20503;-73
2021/06/08 10:09:25;;;;;;;9.70;5.00;;;37.00;29.70;;;;;;6134283;23;20027;-73
2021/06/08 10:12:04;;;;;;;7.15;4.57;;;37.20;29.80;;;;;;6158806;23;20059;-73
2021/06/08 10:14:39;;;;;;;8.10;5.03;;;37.90;28.20;;;;;;6159043;23;20040;-73
2021/06/08 10:17:10;;;;;;;6.63;5.00;;;38.10;28.00;;;;;;6159007;23;20016;-73
2021/06/08 10:19:36;;;;;;;9.10;4.85;;;37.50;27.50;;;;;;6185143;23;20078;-73
2021/06/08 10:22:03;;;;;;;12.75;4.55;;;36.90;28.10;;;;;;6158898;23;20009;-73
2021/06/08 10:24:29;;;;;;;6.82;4.68;;;37.60;27.00;;;;;;6134067;23;20021;-73
2021/06/08 10:26:58;;;;;;;6.43;4.97;;;38.60;26.50;;;;;;6158725;23;20028;-73
2021/06/08 10:29:30;;;;;;;7.30;4.63;;;39.50;25.40;;;;;;6158729;23;20104;-73
2021/06/08 10:31:58;;;;;;;7.72;4.75;;;40.00;25.20;;;;;;6159321;23;20311;-73
2021/06/08 10:34:27;;;;;;;6.63;4.65;;;40.40;24.30;;;;;;6185002;23;20067;-73
2021/06/08 10:36:54;;;;;;;6.03;4.50;;;40.90;24.00;;;;;;6159350;23;20005;-73
2021/06/08 10:39:25;;;;;;;8.05;5.22;;;41.70;23.80;;;;;;6153602;23;20021;-73
2021/06/08 10:41:51;;;;;;;8.23;4.95;;;42.40;23.20;;;;;;6130227;23;20331;-73
2021/06/08 10:44:36;;;;;;;7.63;4.53;;;42.80;21.90;;;;;;6155354;23;20010;-73
2021/06/08 10:47:32;;;;;;;8.63;5.20;;;43.40;22.40;;;;;;6153743;23;20024;-73
2021/06/08 10:49:58;;;;;;;;;;;43.90;22.30;;;;;;6154647;23;20351;-73
2021/06/08 10:52:26;;;;;;;7.80;5.00;;;44.60;22.70;;;;;;6155439;23;19912;-74
2021/06/08 10:54:54;;;;;;;7.07;4.90;;;45.10;20.10;;;;;;6153890;23;20013;-73
2021/06/08 10:57:21;;;;;;;9.60;4.72;;;45.10;19.70;;;;;;6155465;23;20018;-73
2021/06/08 10:59:52;;;;;;;7.50;5.03;;;45.40;19.40;;;;;;6153786;23;20013;-73
2021/06/08 11:03:02;;;;;;;7.60;4.63;;;45.70;19.50;;;;;;6153793;23;20010;-74
2021/06/08 11:06:06;;;;;;;8.60;4.78;;;46.40;20.00;;;;;;6155164;23;20217;-73
2021/06/08 11:09:14;;;;;;;5.75;4.28;;;46.90;19.10;;;;;;6155527;23;20019;-74
2021/06/08 11:12:21;;;;;;;7.28;5.20;;;46.70;18.80;;;;;;6153669;23;20052;-73
2021/06/08 11:14:55;;;;;;;6.90;4.85;;;45.50;19.90;;;;;;6155281;23;20110;-73
2021/06/08 11:17:55;;;;;;;5.63;4.22;;;45.10;19.00;;;;;;6153912;23;20097;-73
2021/06/08 11:20:23;;;;;;;6.82;5.38;;;43.40;20.70;;;;;;6155145;23;20387;-73
2021/06/08 11:22:54;;;;;;;7.50;5.10;;;42.30;21.00;;;;;;6155530;23;20396;-73
2021/06/08 11:25:57;;;;;;;7.28;4.90;;;41.40;22.10;;;;;;6155189;23;20044;-72
2021/06/08 11:28:41;;;;;;;8.35;5.47;;;40.60;22.90;;;;;;6155275;23;20430;-72
2021/06/08 11:31:08;;;;;;;7.82;5.47;;;39.80;23.50;;;;;;6155211;23;20084;-73
2021/06/08 11:33:38;;;;;;;6.68;5.18;;;39.30;24.30;;;;;;6128885;23;20021;-72
2021/06/08 11:36:42;;;;;;;8.57;5.68;;;38.80;24.70;;;;;;6153663;23;20016;-72
2021/06/08 11:39:29;;;;;;;8.60;5.57;;;38.40;25.30;;;;;;6178293;23;20043;-72
2021/06/08 11:42:14;;;;;;;10.85;5.65;;;38.10;25.80;;;;;;6158957;23;20079;-73
2021/06/08 11:44:40;;;;;;;7.60;4.38;;;38.00;26.10;;;;;;6184859;23;20338;-72
2021/06/08 11:47:07;;;;;;;6.95;4.72;;;37.80;25.60;;;;;;6184504;23;20021;-72
2021/06/08 11:49:35;;;;;;;7.70;5.40;;;37.50;26.00;;;;;;6159011;23;20009;-73
2021/06/08 11:52:20;;;;;;;8.10;5.22;;;37.10;26.60;;;;;;6135867;23;20017;-72
2021/06/08 11:54:48;;;;;;;7.00;5.00;;;36.80;27.20;;;;;;6160377;23;20442;-72
2021/06/08 11:57:52;;;;;;;8.27;5.32;;;36.50;27.80;;;;;;6135498;23;20023;-73
2021/06/08 12:00:19;;;;;;;8.75;5.25;;;35.90;27.60;;;;;;6186330;23;20021;-72
2021/06/08 12:02:46;;;;;;;7.85;4.97;;;35.50;27.90;;;;;;6160326;23;20013;-73
2021/06/08 12:05:43;;;;;;;8.70;5.35;;;35.30;28.60;;;;;;6186426;23;20016;-72
2021/06/08 12:08:39;;;;;;;7.43;5.47;;;36.40;27.80;;;;;;6160498;23;20020;-72
2021/06/08 12:11:21;;;;;;;11.35;5.47;;;36.70;27.50;;;;;;6186419;23;20043;-72
2021/06/08 12:13:48;;;;;;;8.40;4.97;;;36.40;27.10;;;;;;6160151;23;20442;-72
2021/06/08 12:16:15;;;;;;;6.55;4.53;;;35.90;27.40;;;;;;6160006;23;20008;-72
2021/06/08 12:18:42;;;;;;;8.65;4.70;;;35.30;27.70;;;;;;6160084;23;20020;-72
2021/06/08 12:21:27;;;;;;;9.32;4.57;;;34.90;27.90;;;;;;6159943;23;20024;-73
2021/06/08 12:23:56;;;;;;;6.20;4.32;;;34.60;28.30;;;;;;6186495;23;20337;-72
2021/06/08 12:26:26;;;;;;;6.43;4.25;;;34.30;29.20;;;;;;6160297;23;20013;-72
2021/06/08 12:29:12;;;;;;;6.90;4.75;;;34.10;29.80;;;;;;6160585;23;20017;-72
2021/06/08 12:31:39;;;;;;;;;;;33.80;29.60;;;;;;6160945;23;20079;-72
2021/06/08 12:34:25;;;;;;;10.85;5.05;;;33.60;29.70;;;;;;6186084;23;20325;-72
2021/06/08 12:36:53;;;;;;;;;;;33.50;30.00;;;;;;6186655;23;20013;-72
2021/06/08 12:39:39;;;;;;;6.93;4.93;;;33.50;30.00;;;;;;6154446;23;19955;-72
2021/06/08 12:42:25;;;;;;;7.32;4.80;;;33.40;30.50;;;;;;6154947;23;20013;-72
2021/06/08 12:44:53;;;;;;;7.57;5.07;;;33.50;30.50;;;;;;6156419;23;20014;-72
2021/06/08 12:47:39;;;;;;;6.65;4.93;;;33.70;29.60;;;;;;6155881;23;20092;-72
2021/06/08 12:53:10;;;;;;;7.50;4.65;;;34.10;29.40;;;;;;6156776;23;20032;-73
2021/06/08 12:55:36;;;;;;;6.72;5.30;;;33.70;29.00;;;;;;6156124;23;20014;-73
2021/06/08 12:58:05;;;;;;;6.40;4.53;;;33.50;30.20;;;;;;6154816;23;20391;-72
2021/06/08 13:00:51;;;;;;;6.35;4.63;;;33.50;30.00;;;;;;6130275;23;20025;-72
2021/06/08 13:03:22;;;;;;;10.35;5.88;;;33.40;30.60;;;;;;6154405;23;20036;-72
2021/06/08 13:05:48;;;;;;;9.27;5.68;;;33.30;30.90;;;;;;6130308;23;20037;-73
2021/06/08 13:08:17;;;;;;;6.78;5.35;;;33.50;30.40;;;;;;6154801;23;20339;-72
2021/06/08 13:10:44;;;;;;;6.65;4.50;;;33.60;29.90;;;;;;6156246;23;20006;-72
2021/06/08 13:13:15;;;;;;;9.00;5.13;;;34.00;30.20;;;;;;6154697;23;20040;-72
2021/06/08 13:16:02;;;;;;;7.63;4.93;;;34.50;29.30;;;;;;6154603;23;20465;-72
2021/06/08 13:18:44;;;;;;;7.20;4.97;;;34.90;29.10;;;;;;6155824;23;20013;-72
2021/06/08 13:21:11;;;;;;;6.10;4.05;;;35.10;29.10;;;;;;6154611;23;20006;-72
2021/06/08 13:23:37;;;;;;;7.20;4.80;;;35.40;26.90;;;;;;6154334;23;20500;-73
2021/06/08 13:26:22;;;;;;;9.02;5.57;;;35.30;27.00;;;;;;6154384;23;20010;-72
2021/06/08 13:28:48;;;;;;;12.85;5.90;;;35.30;27.30;;;;;;6154458;23;20064;-72